sensor_id;sensor_type;location;lat;lon;timestamp;P1;durP1;ratioP1;P2;durP2;ratioP2
12165;SDS011;6146;48.128;11.476;2022-11-21T00:01:54;0.70;;;0.70;;
12165;SDS011;6146;48.128;11.476;2022-11-21T00:04:20;0.70;;;0.70;;
12165;SDS011;6146;48.128;11.476;2022-11-21T00:06:45;0.77;;;0.77;;
12165;SDS011;6146;48.128;11.476;2022-11-21T00:09:11;1.20;;;0.80;;
12165;SDS011;6146;48.128;11.476;2022-11-21T00:11:36;0.70;;;0.70;;
12165;SDS011;6146;48.128;11.476;2022-11-21T00:14:02;0.67;;;0.67;;
12165;SDS011;6146;48.128;11.476;2022-11-21T00:16:27;0.80;;;0.70;;
12165;SDS011;6146;48.128;11.476;2022-11-21T00:18:53;0.67;;;0.67;;
12165;SDS011;6146;48.128;11.476;2022-11-21T00:21:18;0.80;;;0.80;;
12165;SDS011;6146;48.128;11.476;2022-11-21T00:23:45;0.80;;;0.80;;
12165;SDS011;6146;48.128;11.476;2022-11-21T00:26:11;0.80;;;0.80;;
12165;SDS011;6146;48.128;11.476;2022-11-21T00:28:38;0.80;;;0.80;;
12165;SDS011;6146;48.128;11.476;2022-11-21T00:31:04;1.13;;;1.03;;
12165;SDS011;6146;48.128;11.476;2022-11-21T00:33:31;0.87;;;0.87;;
12165;SDS011;6146;48.128;11.476;2022-11-21T00:35:58;0.90;;;0.90;;
12165;SDS011;6146;48.128;11.476;2022-11-21T00:38:30;0.90;;;0.90;;
12165;SDS011;6146;48.128;11.476;2022-11-21T00:40:55;0.90;;;0.90;;
12165;SDS011;6146;48.128;11.476;2022-11-21T00:43:21;0.80;;;0.80;;
12165;SDS011;6146;48.128;11.476;2022-11-21T00:45:46;1.17;;;0.97;;
12165;SDS011;6146;48.128;11.476;2022-11-21T00:48:12;0.90;;;0.90;;
12165;SDS011;6146;48.128;11.476;2022-11-21T00:50:37;1.00;;;1.00;;
12165;SDS011;6146;48.128;11.476;2022-11-21T00:53:03;0.80;;;0.80;;
12165;SDS011;6146;48.128;11.476;2022-11-21T00:55:29;0.97;;;0.97;;
12165;SDS011;6146;48.128;11.476;2022-11-21T00:57:54;1.73;;;0.90;;
12165;SDS011;6146;48.128;11.476;2022-11-21T01:00:20;0.90;;;0.90;;
12165;SDS011;6146;48.128;11.476;2022-11-21T01:02:45;0.87;;;0.87;;
12165;SDS011;6146;48.128;11.476;2022-11-21T01:05:11;0.90;;;0.90;;
12165;SDS011;6146;48.128;11.476;2022-11-21T01:07:36;1.03;;;0.93;;
12165;SDS011;6146;48.128;11.476;2022-11-21T01:10:02;1.27;;;1.10;;
12165;SDS011;6146;48.128;11.476;2022-11-21T01:12:28;1.00;;;1.00;;
12165;SDS011;6146;48.128;11.476;2022-11-21T01:14:55;1.27;;;1.17;;
12165;SDS011;6146;48.128;11.476;2022-11-21T01:17:20;1.10;;;1.00;;
12165;SDS011;6146;48.128;11.476;2022-11-21T01:19:46;1.10;;;1.00;;
12165;SDS011;6146;48.128;11.476;2022-11-21T01:22:12;0.83;;;0.83;;
12165;SDS011;6146;48.128;11.476;2022-11-21T01:24:37;1.00;;;0.90;;
12165;SDS011;6146;48.128;11.476;2022-11-21T01:27:03;1.27;;;1.00;;
12165;SDS011;6146;48.128;11.476;2022-11-21T01:29:28;1.50;;;1.10;;
12165;SDS011;6146;48.128;11.476;2022-11-21T01:31:54;1.20;;;1.10;;
12165;SDS011;6146;48.128;11.476;2022-11-21T01:34:19;1.23;;;0.80;;
12165;SDS011;6146;48.128;11.476;2022-11-21T01:36:45;1.10;;;1.10;;
12165;SDS011;6146;48.128;11.476;2022-11-21T01:39:11;0.80;;;0.80;;
12165;SDS011;6146;48.128;11.476;2022-11-21T01:41:41;2.30;;;1.40;;
12165;SDS011;6146;48.128;11.476;2022-11-21T01:44:18;1.20;;;1.10;;
12165;SDS011;6146;48.128;11.476;2022-11-21T01:47:14;0.90;;;0.90;;
12165;SDS011;6146;48.128;11.476;2022-11-21T01:49:39;1.50;;;1.00;;
12165;SDS011;6146;48.128;11.476;2022-11-21T01:52:08;1.00;;;1.00;;
12165;SDS011;6146;48.128;11.476;2022-11-21T01:54:40;1.20;;;1.10;;
12165;SDS011;6146;48.128;11.476;2022-11-21T02:02:41;1.80;;;1.60;;
12165;SDS011;6146;48.128;11.476;2022-11-21T02:05:12;1.27;;;1.17;;
12165;SDS011;6146;48.128;11.476;2022-11-21T02:07:42;1.10;;;1.10;;
12165;SDS011;6146;48.128;11.476;2022-11-21T02:10:10;1.20;;;1.10;;
12165;SDS011;6146;48.128;11.476;2022-11-21T02:15:18;1.60;;;1.33;;
12165;SDS011;6146;48.128;11.476;2022-11-21T02:17:46;2.90;;;1.30;;
12165;SDS011;6146;48.128;11.476;2022-11-21T02:20:13;1.93;;;1.43;;
12165;SDS011;6146;48.128;11.476;2022-11-21T02:22:46;1.93;;;1.10;;
12165;SDS011;6146;48.128;11.476;2022-11-21T02:25:17;1.47;;;1.37;;
12165;SDS011;6146;48.128;11.476;2022-11-21T02:27:44;2.27;;;1.67;;
12165;SDS011;6146;48.128;11.476;2022-11-21T02:30:10;2.77;;;1.10;;
12165;SDS011;6146;48.128;11.476;2022-11-21T02:32:39;1.80;;;1.30;;
12165;SDS011;6146;48.128;11.476;2022-11-21T02:35:09;2.50;;;1.30;;
12165;SDS011;6146;48.128;11.476;2022-11-21T02:37:35;1.20;;;1.10;;
12165;SDS011;6146;48.128;11.476;2022-11-21T02:40:02;2.17;;;1.47;;
12165;SDS011;6146;48.128;11.476;2022-11-21T02:42:32;1.30;;;1.20;;
12165;SDS011;6146;48.128;11.476;2022-11-21T02:47:34;1.90;;;1.10;;
12165;SDS011;6146;48.128;11.476;2022-11-21T02:50:15;1.40;;;1.10;;
12165;SDS011;6146;48.128;11.476;2022-11-21T02:52:47;1.17;;;1.03;;
12165;SDS011;6146;48.128;11.476;2022-11-21T02:55:13;2.37;;;1.23;;
12165;SDS011;6146;48.128;11.476;2022-11-21T02:57:40;2.13;;;1.00;;
12165;SDS011;6146;48.128;11.476;2022-11-21T03:00:06;2.37;;;1.10;;
12165;SDS011;6146;48.128;11.476;2022-11-21T03:02:33;3.00;;;1.00;;
12165;SDS011;6146;48.128;11.476;2022-11-21T03:04:59;1.67;;;1.10;;
12165;SDS011;6146;48.128;11.476;2022-11-21T03:07:25;1.90;;;1.10;;
12165;SDS011;6146;48.128;11.476;2022-11-21T03:09:51;3.27;;;1.13;;
12165;SDS011;6146;48.128;11.476;2022-11-21T03:12:17;1.40;;;1.07;;
12165;SDS011;6146;48.128;11.476;2022-11-21T03:14:42;1.23;;;1.00;;
12165;SDS011;6146;48.128;11.476;2022-11-21T03:17:08;0.93;;;0.90;;
12165;SDS011;6146;48.128;11.476;2022-11-21T03:19:33;1.47;;;0.90;;
12165;SDS011;6146;48.128;11.476;2022-11-21T03:21:59;1.97;;;0.97;;
12165;SDS011;6146;48.128;11.476;2022-11-21T03:24:24;1.23;;;1.10;;
12165;SDS011;6146;48.128;11.476;2022-11-21T03:26:50;1.87;;;1.10;;
12165;SDS011;6146;48.128;11.476;2022-11-21T03:29:16;1.13;;;1.00;;
12165;SDS011;6146;48.128;11.476;2022-11-21T03:31:41;1.17;;;0.90;;
12165;SDS011;6146;48.128;11.476;2022-11-21T03:34:07;1.27;;;1.10;;
12165;SDS011;6146;48.128;11.476;2022-11-21T03:36:33;1.43;;;0.93;;
12165;SDS011;6146;48.128;11.476;2022-11-21T03:38:59;2.60;;;1.47;;
12165;SDS011;6146;48.128;11.476;2022-11-21T03:41:25;1.00;;;0.90;;
12165;SDS011;6146;48.128;11.476;2022-11-21T03:43:54;1.83;;;1.20;;
12165;SDS011;6146;48.128;11.476;2022-11-21T03:46:20;1.27;;;1.17;;
12165;SDS011;6146;48.128;11.476;2022-11-21T03:48:45;2.63;;;1.10;;
12165;SDS011;6146;48.128;11.476;2022-11-21T03:51:11;1.27;;;0.90;;
12165;SDS011;6146;48.128;11.476;2022-11-21T03:53:36;2.43;;;1.30;;
12165;SDS011;6146;48.128;11.476;2022-11-21T03:56:02;2.10;;;1.30;;
12165;SDS011;6146;48.128;11.476;2022-11-21T03:58:28;2.10;;;1.00;;
12165;SDS011;6146;48.128;11.476;2022-11-21T04:00:53;1.90;;;1.20;;
12165;SDS011;6146;48.128;11.476;2022-11-21T04:03:19;2.37;;;1.27;;
12165;SDS011;6146;48.128;11.476;2022-11-21T04:05:44;1.37;;;1.07;;
12165;SDS011;6146;48.128;11.476;2022-11-21T04:08:10;2.13;;;1.00;;
12165;SDS011;6146;48.128;11.476;2022-11-21T04:10:35;2.57;;;1.10;;
12165;SDS011;6146;48.128;11.476;2022-11-21T04:13:01;2.50;;;1.07;;
12165;SDS011;6146;48.128;11.476;2022-11-21T04:15:26;1.20;;;1.10;;
12165;SDS011;6146;48.128;11.476;2022-11-21T04:17:52;2.07;;;1.10;;
12165;SDS011;6146;48.128;11.476;2022-11-21T04:20:17;2.10;;;1.20;;
12165;SDS011;6146;48.128;11.476;2022-11-21T04:22:43;1.00;;;0.80;;
12165;SDS011;6146;48.128;11.476;2022-11-21T04:25:09;2.80;;;1.30;;
12165;SDS011;6146;48.128;11.476;2022-11-21T04:27:34;3.10;;;1.23;;
12165;SDS011;6146;48.128;11.476;2022-11-21T04:30:00;1.73;;;0.93;;
12165;SDS011;6146;48.128;11.476;2022-11-21T04:32:25;2.47;;;1.50;;
12165;SDS011;6146;48.128;11.476;2022-11-21T04:34:51;2.63;;;1.40;;
12165;SDS011;6146;48.128;11.476;2022-11-21T04:37:17;1.57;;;1.27;;
12165;SDS011;6146;48.128;11.476;2022-11-21T04:39:42;2.27;;;1.30;;
12165;SDS011;6146;48.128;11.476;2022-11-21T04:42:08;1.57;;;0.97;;
12165;SDS011;6146;48.128;11.476;2022-11-21T04:44:33;2.97;;;1.20;;
12165;SDS011;6146;48.128;11.476;2022-11-21T04:46:59;2.77;;;1.23;;
12165;SDS011;6146;48.128;11.476;2022-11-21T04:49:24;1.80;;;1.00;;
12165;SDS011;6146;48.128;11.476;2022-11-21T04:51:50;1.90;;;1.03;;
12165;SDS011;6146;48.128;11.476;2022-11-21T04:54:15;3.17;;;1.43;;
12165;SDS011;6146;48.128;11.476;2022-11-21T04:56:41;2.50;;;1.33;;
12165;SDS011;6146;48.128;11.476;2022-11-21T04:59:07;3.13;;;1.83;;
12165;SDS011;6146;48.128;11.476;2022-11-21T05:01:36;3.63;;;1.87;;
12165;SDS011;6146;48.128;11.476;2022-11-21T05:04:02;1.70;;;1.30;;
12165;SDS011;6146;48.128;11.476;2022-11-21T05:06:27;1.90;;;1.03;;
12165;SDS011;6146;48.128;11.476;2022-11-21T05:08:53;1.33;;;0.97;;
12165;SDS011;6146;48.128;11.476;2022-11-21T05:11:19;2.23;;;0.90;;
12165;SDS011;6146;48.128;11.476;2022-11-21T05:14:03;2.27;;;1.40;;
12165;SDS011;6146;48.128;11.476;2022-11-21T05:16:28;2.27;;;0.80;;
12165;SDS011;6146;48.128;11.476;2022-11-21T05:18:56;3.47;;;1.17;;
12165;SDS011;6146;48.128;11.476;2022-11-21T05:21:21;1.73;;;1.00;;
12165;SDS011;6146;48.128;11.476;2022-11-21T05:23:47;1.73;;;0.90;;
12165;SDS011;6146;48.128;11.476;2022-11-21T05:26:12;1.70;;;0.80;;
12165;SDS011;6146;48.128;11.476;2022-11-21T05:28:38;2.83;;;0.80;;
12165;SDS011;6146;48.128;11.476;2022-11-21T05:31:03;1.33;;;1.10;;
12165;SDS011;6146;48.128;11.476;2022-11-21T05:33:29;0.87;;;0.80;;
12165;SDS011;6146;48.128;11.476;2022-11-21T05:35:54;3.33;;;1.23;;
12165;SDS011;6146;48.128;11.476;2022-11-21T05:38:20;1.63;;;1.40;;
12165;SDS011;6146;48.128;11.476;2022-11-21T05:40:45;0.97;;;0.90;;
12165;SDS011;6146;48.128;11.476;2022-11-21T05:43:11;1.40;;;1.10;;
12165;SDS011;6146;48.128;11.476;2022-11-21T05:45:55;2.63;;;0.90;;
12165;SDS011;6146;48.128;11.476;2022-11-21T05:48:21;1.63;;;1.07;;
12165;SDS011;6146;48.128;11.476;2022-11-21T05:50:47;1.63;;;1.00;;
12165;SDS011;6146;48.128;11.476;2022-11-21T05:53:13;1.40;;;1.20;;
12165;SDS011;6146;48.128;11.476;2022-11-21T05:55:39;1.57;;;0.90;;
12165;SDS011;6146;48.128;11.476;2022-11-21T05:58:05;2.90;;;1.27;;
12165;SDS011;6146;48.128;11.476;2022-11-21T06:00:32;0.90;;;0.90;;
12165;SDS011;6146;48.128;11.476;2022-11-21T06:02:58;1.20;;;1.00;;
12165;SDS011;6146;48.128;11.476;2022-11-21T06:05:42;1.23;;;1.10;;
12165;SDS011;6146;48.128;11.476;2022-11-21T06:08:08;1.27;;;1.17;;
12165;SDS011;6146;48.128;11.476;2022-11-21T06:10:33;1.10;;;0.93;;
12165;SDS011;6146;48.128;11.476;2022-11-21T06:12:59;2.37;;;1.10;;
12165;SDS011;6146;48.128;11.476;2022-11-21T06:15:25;1.60;;;0.90;;
12165;SDS011;6146;48.128;11.476;2022-11-21T06:17:51;0.90;;;0.90;;
12165;SDS011;6146;48.128;11.476;2022-11-21T06:20:17;2.50;;;1.20;;
12165;SDS011;6146;48.128;11.476;2022-11-21T06:22:42;2.77;;;1.10;;
12165;SDS011;6146;48.128;11.476;2022-11-21T06:25:08;1.73;;;1.20;;
12165;SDS011;6146;48.128;11.476;2022-11-21T06:27:34;1.17;;;1.13;;
12165;SDS011;6146;48.128;11.476;2022-11-21T06:29:59;2.40;;;1.17;;
12165;SDS011;6146;48.128;11.476;2022-11-21T06:32:25;2.70;;;1.10;;
12165;SDS011;6146;48.128;11.476;2022-11-21T06:34:51;2.53;;;1.30;;
12165;SDS011;6146;48.128;11.476;2022-11-21T06:37:16;3.30;;;1.60;;
12165;SDS011;6146;48.128;11.476;2022-11-21T06:39:42;5.00;;;1.30;;
12165;SDS011;6146;48.128;11.476;2022-11-21T06:42:07;3.03;;;1.10;;
12165;SDS011;6146;48.128;11.476;2022-11-21T06:44:33;1.70;;;1.27;;
12165;SDS011;6146;48.128;11.476;2022-11-21T06:46:58;2.47;;;1.00;;
12165;SDS011;6146;48.128;11.476;2022-11-21T06:49:24;1.50;;;0.93;;
12165;SDS011;6146;48.128;11.476;2022-11-21T06:51:49;1.57;;;1.10;;
12165;SDS011;6146;48.128;11.476;2022-11-21T06:54:15;1.00;;;1.00;;
12165;SDS011;6146;48.128;11.476;2022-11-21T06:56:41;2.00;;;1.10;;
12165;SDS011;6146;48.128;11.476;2022-11-21T06:59:06;1.77;;;1.30;;
12165;SDS011;6146;48.128;11.476;2022-11-21T07:01:32;1.50;;;1.20;;
12165;SDS011;6146;48.128;11.476;2022-11-21T07:03:57;1.33;;;1.10;;
12165;SDS011;6146;48.128;11.476;2022-11-21T07:06:23;0.80;;;0.80;;
12165;SDS011;6146;48.128;11.476;2022-11-21T07:08:51;1.70;;;1.10;;
12165;SDS011;6146;48.128;11.476;2022-11-21T07:11:18;0.80;;;0.80;;
12165;SDS011;6146;48.128;11.476;2022-11-21T07:13:43;1.10;;;1.00;;
12165;SDS011;6146;48.128;11.476;2022-11-21T07:16:10;2.20;;;0.73;;
12165;SDS011;6146;48.128;11.476;2022-11-21T07:18:39;0.80;;;0.80;;
12165;SDS011;6146;48.128;11.476;2022-11-21T07:21:06;1.30;;;1.20;;
12165;SDS011;6146;48.128;11.476;2022-11-21T07:23:33;0.50;;;0.50;;
12165;SDS011;6146;48.128;11.476;2022-11-21T07:26:02;2.03;;;0.80;;
12165;SDS011;6146;48.128;11.476;2022-11-21T07:28:29;0.87;;;0.70;;
12165;SDS011;6146;48.128;11.476;2022-11-21T07:30:56;1.17;;;0.80;;
12165;SDS011;6146;48.128;11.476;2022-11-21T07:33:27;0.70;;;0.70;;
12165;SDS011;6146;48.128;11.476;2022-11-21T07:35:56;1.17;;;0.70;;
12165;SDS011;6146;48.128;11.476;2022-11-21T07:38:22;0.53;;;0.53;;
12165;SDS011;6146;48.128;11.476;2022-11-21T07:40:51;0.60;;;0.60;;
12165;SDS011;6146;48.128;11.476;2022-11-21T07:43:17;1.53;;;0.67;;
12165;SDS011;6146;48.128;11.476;2022-11-21T07:45:42;0.70;;;0.70;;
12165;SDS011;6146;48.128;11.476;2022-11-21T07:48:08;0.47;;;0.47;;
12165;SDS011;6146;48.128;11.476;2022-11-21T07:50:34;0.70;;;0.70;;
12165;SDS011;6146;48.128;11.476;2022-11-21T07:53:00;0.87;;;0.60;;
12165;SDS011;6146;48.128;11.476;2022-11-21T07:55:27;0.70;;;0.70;;
12165;SDS011;6146;48.128;11.476;2022-11-21T07:58:12;0.90;;;0.70;;
12165;SDS011;6146;48.128;11.476;2022-11-21T08:00:40;0.80;;;0.80;;
12165;SDS011;6146;48.128;11.476;2022-11-21T08:03:09;0.53;;;0.53;;
12165;SDS011;6146;48.128;11.476;2022-11-21T08:05:39;1.07;;;0.67;;
12165;SDS011;6146;48.128;11.476;2022-11-21T08:08:06;0.90;;;0.80;;
12165;SDS011;6146;48.128;11.476;2022-11-21T08:10:32;1.13;;;0.80;;
12165;SDS011;6146;48.128;11.476;2022-11-21T08:13:00;0.93;;;0.60;;
12165;SDS011;6146;48.128;11.476;2022-11-21T08:15:26;0.80;;;0.80;;
12165;SDS011;6146;48.128;11.476;2022-11-21T08:17:51;0.87;;;0.60;;
12165;SDS011;6146;48.128;11.476;2022-11-21T08:20:17;0.60;;;0.60;;
12165;SDS011;6146;48.128;11.476;2022-11-21T08:22:43;1.47;;;0.80;;
12165;SDS011;6146;48.128;11.476;2022-11-21T08:25:08;2.93;;;1.10;;
12165;SDS011;6146;48.128;11.476;2022-11-21T08:27:36;0.60;;;0.60;;
12165;SDS011;6146;48.128;11.476;2022-11-21T08:30:03;0.70;;;0.70;;
12165;SDS011;6146;48.128;11.476;2022-11-21T08:32:34;2.67;;;1.00;;
12165;SDS011;6146;48.128;11.476;2022-11-21T08:34:59;2.87;;;1.00;;
12165;SDS011;6146;48.128;11.476;2022-11-21T08:37:28;1.40;;;0.97;;
12165;SDS011;6146;48.128;11.476;2022-11-21T08:39:54;1.70;;;0.93;;
12165;SDS011;6146;48.128;11.476;2022-11-21T08:42:20;0.87;;;0.80;;
12165;SDS011;6146;48.128;11.476;2022-11-21T08:44:45;1.53;;;1.43;;
12165;SDS011;6146;48.128;11.476;2022-11-21T08:47:11;1.97;;;0.80;;
12165;SDS011;6146;48.128;11.476;2022-11-21T08:49:36;1.13;;;0.70;;
12165;SDS011;6146;48.128;11.476;2022-11-21T08:52:02;0.93;;;0.70;;
12165;SDS011;6146;48.128;11.476;2022-11-21T08:54:27;1.07;;;0.80;;
12165;SDS011;6146;48.128;11.476;2022-11-21T08:56:53;1.73;;;1.10;;
12165;SDS011;6146;48.128;11.476;2022-11-21T08:59:19;2.10;;;1.20;;
12165;SDS011;6146;48.128;11.476;2022-11-21T09:01:44;0.90;;;0.90;;
12165;SDS011;6146;48.128;11.476;2022-11-21T09:04:10;1.77;;;1.10;;
12165;SDS011;6146;48.128;11.476;2022-11-21T09:06:36;3.43;;;1.33;;
12165;SDS011;6146;48.128;11.476;2022-11-21T09:09:03;1.00;;;1.00;;
12165;SDS011;6146;48.128;11.476;2022-11-21T09:11:30;3.13;;;1.70;;
12165;SDS011;6146;48.128;11.476;2022-11-21T09:13:57;2.20;;;1.10;;
12165;SDS011;6146;48.128;11.476;2022-11-21T09:16:42;1.53;;;1.20;;
12165;SDS011;6146;48.128;11.476;2022-11-21T09:19:26;2.77;;;0.90;;
12165;SDS011;6146;48.128;11.476;2022-11-21T09:21:52;1.50;;;0.97;;
12165;SDS011;6146;48.128;11.476;2022-11-21T09:24:17;1.03;;;0.90;;
12165;SDS011;6146;48.128;11.476;2022-11-21T09:26:43;1.10;;;0.97;;
12165;SDS011;6146;48.128;11.476;2022-11-21T09:29:09;1.10;;;0.80;;
12165;SDS011;6146;48.128;11.476;2022-11-21T09:31:36;2.03;;;0.97;;
12165;SDS011;6146;48.128;11.476;2022-11-21T09:34:02;1.50;;;0.90;;
12165;SDS011;6146;48.128;11.476;2022-11-21T09:36:28;1.63;;;0.87;;
12165;SDS011;6146;48.128;11.476;2022-11-21T09:38:53;3.00;;;1.00;;
12165;SDS011;6146;48.128;11.476;2022-11-21T09:44:16;2.27;;;1.00;;
12165;SDS011;6146;48.128;11.476;2022-11-21T09:47:23;1.63;;;1.00;;
12165;SDS011;6146;48.128;11.476;2022-11-21T09:50:00;1.40;;;0.90;;
12165;SDS011;6146;48.128;11.476;2022-11-21T09:58:04;2.23;;;1.20;;
12165;SDS011;6146;48.128;11.476;2022-11-21T10:00:35;1.10;;;1.00;;
12165;SDS011;6146;48.128;11.476;2022-11-21T10:03:01;5.40;;;1.37;;
12165;SDS011;6146;48.128;11.476;2022-11-21T10:05:32;1.60;;;1.00;;
12165;SDS011;6146;48.128;11.476;2022-11-21T10:08:07;1.53;;;1.20;;
12165;SDS011;6146;48.128;11.476;2022-11-21T10:10:54;2.80;;;1.13;;
12165;SDS011;6146;48.128;11.476;2022-11-21T10:13:31;3.17;;;1.00;;
12165;SDS011;6146;48.128;11.476;2022-11-21T10:16:02;2.90;;;1.23;;
12165;SDS011;6146;48.128;11.476;2022-11-21T10:29:25;1.20;;;0.90;;
12165;SDS011;6146;48.128;11.476;2022-11-21T10:32:02;1.30;;;1.20;;
12165;SDS011;6146;48.128;11.476;2022-11-21T10:34:37;1.23;;;1.13;;
12165;SDS011;6146;48.128;11.476;2022-11-21T10:37:37;3.93;;;1.47;;
12165;SDS011;6146;48.128;11.476;2022-11-21T10:40:02;3.37;;;1.47;;
12165;SDS011;6146;48.128;11.476;2022-11-21T10:42:39;1.87;;;1.10;;
12165;SDS011;6146;48.128;11.476;2022-11-21T10:45:21;2.27;;;1.23;;
12165;SDS011;6146;48.128;11.476;2022-11-21T10:47:48;2.47;;;1.50;;
12165;SDS011;6146;48.128;11.476;2022-11-21T10:50:27;3.27;;;1.73;;
12165;SDS011;6146;48.128;11.476;2022-11-21T10:56:04;2.20;;;1.40;;
12165;SDS011;6146;48.128;11.476;2022-11-21T11:01:22;3.33;;;1.30;;
12165;SDS011;6146;48.128;11.476;2022-11-21T11:04:14;2.23;;;1.20;;
12165;SDS011;6146;48.128;11.476;2022-11-21T11:06:42;3.20;;;1.50;;
12165;SDS011;6146;48.128;11.476;2022-11-21T11:09:30;1.57;;;0.90;;
12165;SDS011;6146;48.128;11.476;2022-11-21T11:15:14;4.10;;;1.43;;
12165;SDS011;6146;48.128;11.476;2022-11-21T11:17:42;1.73;;;1.40;;
12165;SDS011;6146;48.128;11.476;2022-11-21T11:25:46;1.73;;;1.50;;
12165;SDS011;6146;48.128;11.476;2022-11-21T11:28:17;2.63;;;1.40;;
12165;SDS011;6146;48.128;11.476;2022-11-21T11:30:44;2.17;;;1.90;;
12165;SDS011;6146;48.128;11.476;2022-11-21T11:33:30;2.10;;;1.67;;
12165;SDS011;6146;48.128;11.476;2022-11-21T11:38:56;3.97;;;2.27;;
12165;SDS011;6146;48.128;11.476;2022-11-21T11:41:33;2.30;;;1.50;;
12165;SDS011;6146;48.128;11.476;2022-11-21T11:44:27;2.60;;;1.47;;
12165;SDS011;6146;48.128;11.476;2022-11-21T11:47:26;2.40;;;1.87;;
12165;SDS011;6146;48.128;11.476;2022-11-21T11:49:59;4.83;;;3.00;;
12165;SDS011;6146;48.128;11.476;2022-11-21T11:52:38;5.00;;;1.87;;
12165;SDS011;6146;48.128;11.476;2022-11-21T11:55:14;2.53;;;1.57;;
12165;SDS011;6146;48.128;11.476;2022-11-21T11:57:46;2.20;;;1.87;;
12165;SDS011;6146;48.128;11.476;2022-11-21T12:02:59;3.30;;;1.33;;
12165;SDS011;6146;48.128;11.476;2022-11-21T12:05:30;2.77;;;1.30;;
12165;SDS011;6146;48.128;11.476;2022-11-21T12:08:04;2.90;;;1.30;;
12165;SDS011;6146;48.128;11.476;2022-11-21T12:10:40;2.93;;;1.60;;
12165;SDS011;6146;48.128;11.476;2022-11-21T12:13:30;2.67;;;1.50;;
12165;SDS011;6146;48.128;11.476;2022-11-21T12:16:01;2.10;;;1.57;;
12165;SDS011;6146;48.128;11.476;2022-11-21T12:19:15;1.43;;;1.17;;
12165;SDS011;6146;48.128;11.476;2022-11-21T12:21:19;1.30;;;1.00;;
12165;SDS011;6146;48.128;11.476;2022-11-21T12:23:48;2.10;;;1.13;;
12165;SDS011;6146;48.128;11.476;2022-11-21T12:26:19;2.20;;;1.30;;
12165;SDS011;6146;48.128;11.476;2022-11-21T12:42:47;1.83;;;1.30;;
12165;SDS011;6146;48.128;11.476;2022-11-21T12:45:30;2.27;;;1.30;;
12165;SDS011;6146;48.128;11.476;2022-11-21T12:57:11;2.30;;;1.03;;
12165;SDS011;6146;48.128;11.476;2022-11-21T13:04:47;1.30;;;1.03;;
12165;SDS011;6146;48.128;11.476;2022-11-21T13:07:14;4.67;;;1.60;;
12165;SDS011;6146;48.128;11.476;2022-11-21T13:09:41;2.60;;;1.50;;
12165;SDS011;6146;48.128;11.476;2022-11-21T13:25:09;1.73;;;1.30;;
12165;SDS011;6146;48.128;11.476;2022-11-21T13:35:58;3.00;;;1.23;;
12165;SDS011;6146;48.128;11.476;2022-11-21T13:38:26;1.20;;;0.90;;
12165;SDS011;6146;48.128;11.476;2022-11-21T13:40:52;2.30;;;0.93;;
12165;SDS011;6146;48.128;11.476;2022-11-21T13:43:36;2.80;;;1.43;;
12165;SDS011;6146;48.128;11.476;2022-11-21T13:46:02;1.03;;;1.00;;
12165;SDS011;6146;48.128;11.476;2022-11-21T13:56:57;1.47;;;1.23;;
12165;SDS011;6146;48.128;11.476;2022-11-21T13:59:31;1.40;;;1.13;;
12165;SDS011;6146;48.128;11.476;2022-11-21T14:05:19;1.10;;;1.00;;
12165;SDS011;6146;48.128;11.476;2022-11-21T14:08:10;4.00;;;1.20;;
12165;SDS011;6146;48.128;11.476;2022-11-21T14:10:36;1.47;;;1.17;;
12165;SDS011;6146;48.128;11.476;2022-11-21T14:13:02;2.77;;;1.53;;
12165;SDS011;6146;48.128;11.476;2022-11-21T14:15:34;1.63;;;1.27;;
12165;SDS011;6146;48.128;11.476;2022-11-21T14:18:22;4.57;;;1.50;;
12165;SDS011;6146;48.128;11.476;2022-11-21T14:20:52;4.07;;;1.47;;
12165;SDS011;6146;48.128;11.476;2022-11-21T14:23:21;1.97;;;1.10;;
12165;SDS011;6146;48.128;11.476;2022-11-21T14:28:29;4.83;;;1.70;;
12165;SDS011;6146;48.128;11.476;2022-11-21T14:31:03;8.57;;;3.50;;
12165;SDS011;6146;48.128;11.476;2022-11-21T14:33:36;2.50;;;1.40;;
12165;SDS011;6146;48.128;11.476;2022-11-21T14:38:42;5.10;;;2.43;;
12165;SDS011;6146;48.128;11.476;2022-11-21T14:43:48;2.97;;;1.20;;
12165;SDS011;6146;48.128;11.476;2022-11-21T14:46:14;2.93;;;1.27;;
12165;SDS011;6146;48.128;11.476;2022-11-21T14:48:43;4.00;;;1.27;;
12165;SDS011;6146;48.128;11.476;2022-11-21T14:51:09;4.57;;;2.10;;
12165;SDS011;6146;48.128;11.476;2022-11-21T14:53:39;3.03;;;2.00;;
12165;SDS011;6146;48.128;11.476;2022-11-21T14:56:09;5.67;;;1.73;;
12165;SDS011;6146;48.128;11.476;2022-11-21T14:58:36;5.53;;;1.87;;
12165;SDS011;6146;48.128;11.476;2022-11-21T15:01:05;2.73;;;1.80;;
12165;SDS011;6146;48.128;11.476;2022-11-21T15:03:32;5.07;;;1.70;;
12165;SDS011;6146;48.128;11.476;2022-11-21T15:05:59;2.27;;;1.40;;
12165;SDS011;6146;48.128;11.476;2022-11-21T15:08:26;2.90;;;1.70;;
12165;SDS011;6146;48.128;11.476;2022-11-21T15:10:52;2.77;;;1.40;;
12165;SDS011;6146;48.128;11.476;2022-11-21T15:13:21;2.53;;;1.33;;
12165;SDS011;6146;48.128;11.476;2022-11-21T15:15:50;3.23;;;1.67;;
12165;SDS011;6146;48.128;11.476;2022-11-21T15:18:27;3.27;;;1.83;;
12165;SDS011;6146;48.128;11.476;2022-11-21T15:20:58;2.93;;;1.60;;
12165;SDS011;6146;48.128;11.476;2022-11-21T15:23:30;3.50;;;1.90;;
12165;SDS011;6146;48.128;11.476;2022-11-21T15:25:57;4.13;;;1.97;;
12165;SDS011;6146;48.128;11.476;2022-11-21T15:28:24;3.80;;;2.00;;
12165;SDS011;6146;48.128;11.476;2022-11-21T15:33:57;2.90;;;1.83;;
12165;SDS011;6146;48.128;11.476;2022-11-21T15:36:28;5.03;;;2.30;;
12165;SDS011;6146;48.128;11.476;2022-11-21T15:38:55;3.00;;;1.80;;
12165;SDS011;6146;48.128;11.476;2022-11-21T15:41:33;2.60;;;1.97;;
12165;SDS011;6146;48.128;11.476;2022-11-21T15:46:26;3.57;;;2.03;;
12165;SDS011;6146;48.128;11.476;2022-11-21T15:48:54;3.60;;;2.50;;
12165;SDS011;6146;48.128;11.476;2022-11-21T15:51:35;3.10;;;2.00;;
12165;SDS011;6146;48.128;11.476;2022-11-21T15:54:02;3.93;;;2.77;;
12165;SDS011;6146;48.128;11.476;2022-11-21T15:56:29;4.90;;;2.50;;
12165;SDS011;6146;48.128;11.476;2022-11-21T15:58:54;5.30;;;2.80;;
12165;SDS011;6146;48.128;11.476;2022-11-21T16:01:21;4.03;;;2.70;;
12165;SDS011;6146;48.128;11.476;2022-11-21T16:03:52;4.23;;;2.70;;
12165;SDS011;6146;48.128;11.476;2022-11-21T16:06:21;4.70;;;2.77;;
12165;SDS011;6146;48.128;11.476;2022-11-21T16:08:46;4.57;;;2.80;;
12165;SDS011;6146;48.128;11.476;2022-11-21T16:13:51;3.67;;;2.20;;
12165;SDS011;6146;48.128;11.476;2022-11-21T16:16:19;5.23;;;3.27;;
12165;SDS011;6146;48.128;11.476;2022-11-21T16:18:46;2.37;;;2.17;;
12165;SDS011;6146;48.128;11.476;2022-11-21T16:21:12;5.07;;;2.40;;
12165;SDS011;6146;48.128;11.476;2022-11-21T16:23:37;4.87;;;3.10;;
12165;SDS011;6146;48.128;11.476;2022-11-21T16:26:04;3.93;;;2.50;;
12165;SDS011;6146;48.128;11.476;2022-11-21T16:28:31;3.47;;;2.43;;
12165;SDS011;6146;48.128;11.476;2022-11-21T16:30:57;8.90;;;7.57;;
12165;SDS011;6146;48.128;11.476;2022-11-21T16:33:23;3.50;;;2.67;;
12165;SDS011;6146;48.128;11.476;2022-11-21T16:35:49;7.60;;;2.60;;
12165;SDS011;6146;48.128;11.476;2022-11-21T16:38:19;5.70;;;2.93;;
12165;SDS011;6146;48.128;11.476;2022-11-21T16:40:51;5.30;;;2.80;;
12165;SDS011;6146;48.128;11.476;2022-11-21T16:43:22;4.40;;;2.40;;
12165;SDS011;6146;48.128;11.476;2022-11-21T16:45:48;4.30;;;2.60;;
12165;SDS011;6146;48.128;11.476;2022-11-21T16:48:15;4.60;;;2.70;;
12165;SDS011;6146;48.128;11.476;2022-11-21T16:50:40;3.50;;;2.37;;
12165;SDS011;6146;48.128;11.476;2022-11-21T16:53:06;3.37;;;2.50;;
12165;SDS011;6146;48.128;11.476;2022-11-21T16:55:32;4.43;;;2.90;;
12165;SDS011;6146;48.128;11.476;2022-11-21T16:57:57;3.57;;;3.03;;
12165;SDS011;6146;48.128;11.476;2022-11-21T17:00:23;4.73;;;2.60;;
12165;SDS011;6146;48.128;11.476;2022-11-21T17:02:50;5.73;;;3.10;;
12165;SDS011;6146;48.128;11.476;2022-11-21T17:05:16;3.30;;;2.63;;